createdAt,value
2019-03-10T00:00:38.858Z,3.05
2019-03-10T00:04:40.767Z,3.30
2019-03-10T00:08:42.706Z,3.60
2019-03-10T00:12:44.620Z,2.58
2019-03-10T00:16:46.523Z,3.20
2019-03-10T00:20:48.423Z,3.43
2019-03-10T00:24:50.326Z,3.37
2019-03-10T00:28:52.255Z,3.40
2019-03-10T00:32:54.233Z,5.00
2019-03-10T00:36:56.144Z,3.80
2019-03-10T00:41:11.165Z,4.57
2019-03-10T00:45:34.085Z,2.43
2019-03-10T00:50:29.115Z,4.40
2019-03-10T00:54:31.029Z,3.00
2019-03-10T00:58:32.938Z,2.00
2019-03-10T01:02:34.848Z,4.40
2019-03-10T01:06:36.755Z,2.98
2019-03-10T01:10:38.663Z,3.43
2019-03-10T01:14:40.561Z,2.90
2019-03-10T01:18:43.882Z,4.37
2019-03-10T01:22:45.800Z,2.45
2019-03-10T01:26:47.694Z,4.07
2019-03-10T01:31:06.108Z,4.43
2019-03-10T01:35:21.574Z,4.77
2019-03-10T01:39:23.621Z,3.83
2019-03-10T01:43:25.529Z,5.20
2019-03-10T01:47:27.451Z,5.00
2019-03-10T01:51:29.555Z,4.65
2019-03-10T01:55:31.467Z,5.10
2019-03-10T01:59:33.384Z,3.93
2019-03-10T02:03:35.287Z,5.20
2019-03-10T02:07:37.202Z,4.53
2019-03-10T02:11:39.090Z,4.15
2019-03-10T02:15:40.998Z,4.13
2019-03-10T02:19:43.309Z,3.10
2019-03-10T02:23:45.196Z,3.47
2019-03-10T02:27:47.106Z,3.70
2019-03-10T02:31:49.017Z,3.80
2019-03-10T02:35:50.914Z,4.40
2019-03-10T02:39:52.823Z,2.53
2019-03-10T02:43:55.035Z,3.80
2019-03-10T02:47:56.932Z,3.10
2019-03-10T02:51:58.838Z,2.30
2019-03-10T02:56:00.724Z,3.50
2019-03-10T03:00:02.690Z,3.60
2019-03-10T03:04:05.838Z,3.63
2019-03-10T03:08:07.834Z,3.20
2019-03-10T03:12:09.738Z,3.20
2019-03-10T03:16:12.612Z,2.70
2019-03-10T03:20:14.683Z,3.00
2019-03-10T03:24:16.621Z,3.00
2019-03-10T03:28:18.488Z,2.15
2019-03-10T03:32:20.524Z,2.90
2019-03-10T03:36:27.311Z,2.60
2019-03-10T03:40:29.568Z,3.43
2019-03-10T03:44:31.490Z,3.50
2019-03-10T03:48:33.398Z,2.53
2019-03-10T03:52:35.286Z,2.70
2019-03-10T03:56:37.420Z,3.02
2019-03-10T04:00:39.376Z,2.50
2019-03-10T04:04:41.289Z,3.17
2019-03-10T04:08:43.215Z,3.20
2019-03-10T04:12:45.145Z,2.33
2019-03-10T04:16:47.092Z,3.20
2019-03-10T04:20:49.006Z,2.70
2019-03-10T04:24:50.906Z,2.70
2019-03-10T04:28:52.894Z,2.20
2019-03-10T04:32:54.814Z,2.23
2019-03-10T04:36:56.728Z,3.00
2019-03-10T04:40:58.735Z,3.30
2019-03-10T04:45:00.683Z,2.27
2019-03-10T04:49:02.735Z,2.93
2019-03-10T04:53:04.856Z,3.00
2019-03-10T04:57:09.367Z,3.00
2019-03-10T05:01:11.341Z,2.00
2019-03-10T05:05:14.538Z,1.87
2019-03-10T05:09:16.687Z,2.20
2019-03-10T05:13:18.608Z,3.03
2019-03-10T05:17:20.540Z,3.60
2019-03-10T05:21:22.433Z,1.90
2019-03-10T05:25:25.351Z,2.60
2019-03-10T05:29:27.257Z,2.33
2019-03-10T05:33:29.698Z,2.55
2019-03-10T05:37:49.986Z,3.23
2019-03-10T05:41:53.856Z,2.97
2019-03-10T05:45:55.954Z,1.50
2019-03-10T05:49:57.859Z,1.70
2019-03-10T05:54:00.936Z,1.20
2019-03-10T05:58:02.865Z,1.23
2019-03-10T06:02:04.766Z,2.30
2019-03-10T06:06:06.674Z,1.70
2019-03-10T06:10:08.639Z,2.30
2019-03-10T06:14:10.518Z,1.90
2019-03-10T06:18:13.884Z,2.10
2019-03-10T06:22:16.084Z,1.60
2019-03-10T06:26:17.945Z,1.93
2019-03-10T06:30:19.910Z,2.33
2019-03-10T06:34:23.614Z,2.37
2019-03-10T06:38:25.504Z,2.90
2019-03-10T06:42:27.412Z,1.97
2019-03-10T06:46:29.587Z,2.13
2019-03-10T06:50:31.490Z,2.30
2019-03-10T06:54:33.376Z,1.90
2019-03-10T06:58:35.284Z,1.90
2019-03-10T07:02:37.190Z,2.00
2019-03-10T07:06:39.084Z,1.73
2019-03-10T07:10:40.999Z,1.62
2019-03-10T07:14:42.885Z,1.60
2019-03-10T07:18:45.760Z,1.40
2019-03-10T07:22:47.672Z,1.70
2019-03-10T07:26:49.572Z,1.97
2019-03-10T07:30:53.092Z,0.87
2019-03-10T07:35:05.409Z,2.00
2019-03-10T07:39:09.830Z,1.00
2019-03-10T07:43:13.366Z,6.63
2019-03-10T07:47:23.040Z,2.60
2019-03-10T07:51:26.600Z,3.60
2019-03-10T07:55:40.066Z,5.47
2019-03-10T07:59:50.965Z,2.10
2019-03-10T08:03:54.500Z,2.00
2019-03-10T08:08:14.279Z,1.80
2019-03-10T08:12:23.729Z,1.67
2019-03-10T08:16:30.297Z,2.07
2019-03-10T08:20:45.743Z,1.20
2019-03-10T08:25:01.739Z,1.70
2019-03-10T08:29:23.438Z,1.40
2019-03-10T08:33:32.799Z,1.13
2019-03-10T08:37:39.321Z,1.12
2019-03-10T08:41:42.872Z,1.07
2019-03-10T08:45:49.323Z,0.80
2019-03-10T08:49:52.935Z,1.10
2019-03-10T08:53:56.480Z,1.03
2019-03-10T08:58:02.884Z,1.10
2019-03-10T09:02:09.288Z,0.78
2019-03-10T09:06:28.993Z,0.60
2019-03-10T09:10:41.409Z,0.70
2019-03-10T09:14:45.101Z,0.98
2019-03-10T09:19:03.744Z,1.00
2019-03-10T09:23:13.507Z,1.00
2019-03-10T09:27:28.287Z,1.20
2019-03-10T09:31:46.671Z,0.95
2019-03-10T09:36:04.945Z,1.00
2019-03-10T09:40:12.682Z,1.20
2019-03-10T09:44:14.357Z,2.33
2019-03-10T09:48:24.797Z,0.83
2019-03-10T09:52:26.453Z,0.87
2019-03-10T09:56:43.235Z,1.23
2019-03-10T10:01:02.479Z,1.10
2019-03-10T10:05:10.523Z,0.80
2019-03-10T10:09:25.932Z,0.70
2019-03-10T10:13:38.435Z,0.60
2019-03-10T10:17:42.679Z,0.80
2019-03-10T10:21:44.346Z,0.70
2019-03-10T10:25:47.889Z,0.60
2019-03-10T10:30:09.733Z,0.80
2019-03-10T10:34:31.256Z,0.97
2019-03-10T10:38:50.875Z,0.83
2019-03-10T10:43:07.771Z,0.60
2019-03-10T10:47:14.930Z,0.80
2019-03-10T10:51:19.302Z,0.90
2019-03-10T10:55:25.717Z,0.70
2019-03-10T10:59:29.250Z,0.77
2019-03-10T11:03:44.861Z,1.10
2019-03-10T11:07:50.824Z,0.90
2019-03-10T11:12:06.580Z,0.70
2019-03-10T11:16:10.123Z,0.50
2019-03-10T11:20:13.918Z,0.60
2019-03-10T11:24:17.489Z,0.50
2019-03-10T11:28:39.360Z,0.50
2019-03-10T11:32:42.917Z,0.50
2019-03-10T11:36:52.090Z,0.60
2019-03-10T11:40:56.685Z,0.55
2019-03-10T11:45:00.440Z,0.40
2019-03-10T11:49:07.083Z,0.50
2019-03-10T11:53:18.741Z,0.50
2019-03-10T11:57:31.917Z,0.30
2019-03-10T12:01:41.281Z,0.20
2019-03-10T12:06:02.628Z,0.40
2019-03-10T12:10:07.361Z,0.30
2019-03-10T12:14:09.480Z,0.30
2019-03-10T12:18:11.379Z,0.30
2019-03-10T12:22:13.318Z,0.40
2019-03-10T12:26:15.304Z,0.40
2019-03-10T12:30:17.880Z,0.40
2019-03-10T12:34:19.844Z,0.40
2019-03-10T12:38:21.816Z,0.40
2019-03-10T12:42:23.715Z,0.30
2019-03-10T12:46:25.808Z,0.30
2019-03-10T12:50:27.725Z,0.20
2019-03-10T12:54:29.939Z,0.30
2019-03-10T12:58:31.962Z,0.50
2019-03-10T13:02:34.092Z,0.40
2019-03-10T13:06:36.114Z,0.30
2019-03-10T13:10:38.039Z,0.50
2019-03-10T13:14:39.942Z,0.30
2019-03-10T13:18:41.860Z,0.30
2019-03-10T13:22:43.921Z,0.40
2019-03-10T13:26:45.833Z,0.40
2019-03-10T13:30:47.786Z,0.40
2019-03-10T13:34:49.695Z,0.50
2019-03-10T13:38:51.619Z,0.30
2019-03-10T13:42:53.655Z,0.30
2019-03-10T13:46:55.606Z,0.60
2019-03-10T13:50:57.548Z,0.77
2019-03-10T13:54:59.449Z,1.00
2019-03-10T13:59:01.659Z,0.40
2019-03-10T14:03:03.575Z,1.67
2019-03-10T14:07:05.668Z,0.50
2019-03-10T14:11:07.580Z,0.90
2019-03-10T14:15:15.909Z,1.67
2019-03-10T14:19:17.862Z,0.60
2019-03-10T14:23:19.737Z,0.50
2019-03-10T14:27:21.657Z,1.63
2019-03-10T14:31:23.576Z,1.20
2019-03-10T14:35:25.482Z,0.50
2019-03-10T14:39:35.859Z,0.50
2019-03-10T14:43:37.757Z,0.50
2019-03-10T14:47:39.681Z,0.60
2019-03-10T14:51:41.577Z,0.60
2019-03-10T14:55:43.487Z,0.47
2019-03-10T14:59:45.405Z,0.60
2019-03-10T15:03:47.323Z,0.90
2019-03-10T15:07:49.248Z,0.70
2019-03-10T15:11:51.161Z,0.80
2019-03-10T15:15:53.061Z,0.80
2019-03-10T15:19:54.976Z,0.93
2019-03-10T15:23:56.894Z,1.03
2019-03-10T15:27:58.827Z,0.93
2019-03-10T15:32:00.737Z,1.10
2019-03-10T15:36:02.649Z,1.00
2019-03-10T15:40:07.830Z,1.10
2019-03-10T15:44:09.733Z,1.20
2019-03-10T15:48:11.655Z,1.10
2019-03-10T15:52:13.576Z,1.30
2019-03-10T15:56:15.464Z,0.90
2019-03-10T16:00:20.706Z,1.10
2019-03-10T16:04:22.896Z,1.10
2019-03-10T16:08:24.803Z,1.30
2019-03-10T16:12:26.730Z,1.17
2019-03-10T16:16:28.637Z,1.43
2019-03-10T16:20:30.553Z,1.30
2019-03-10T16:24:32.472Z,1.27
2019-03-10T16:28:34.395Z,1.60
2019-03-10T16:32:36.310Z,1.87
2019-03-10T16:36:38.216Z,1.77
2019-03-10T16:40:40.137Z,1.62
2019-03-10T16:44:42.054Z,1.60
2019-03-10T16:48:44.032Z,1.70
2019-03-10T16:52:45.976Z,1.43
2019-03-10T16:56:47.881Z,1.60
2019-03-10T17:00:49.865Z,2.20
2019-03-10T17:04:51.772Z,1.70
2019-03-10T17:08:53.695Z,1.77
2019-03-10T17:12:55.976Z,1.93
2019-03-10T17:16:57.893Z,1.70
2019-03-10T17:20:59.792Z,2.10
2019-03-10T17:25:01.721Z,1.97
2019-03-10T17:29:03.637Z,1.70
2019-03-10T17:33:05.645Z,1.97
2019-03-10T17:37:07.567Z,1.70
2019-03-10T17:41:09.481Z,1.80
2019-03-10T17:45:22.981Z,1.60
2019-03-10T17:49:24.972Z,1.57
2019-03-10T17:53:26.902Z,2.20
2019-03-10T17:57:30.045Z,1.70
2019-03-10T18:01:31.964Z,1.67
2019-03-10T18:05:33.881Z,1.80
2019-03-10T18:09:35.801Z,1.70
2019-03-10T18:13:37.697Z,1.70
2019-03-10T18:17:39.601Z,2.10
2019-03-10T18:21:41.511Z,1.62
2019-03-10T18:25:43.491Z,1.50
2019-03-10T18:29:45.395Z,1.30
2019-03-10T18:33:47.292Z,1.77
2019-03-10T18:37:50.179Z,1.10
2019-03-10T18:41:52.102Z,1.30
2019-03-10T18:45:54.006Z,1.40
2019-03-10T18:49:55.963Z,1.10
2019-03-10T18:53:57.965Z,0.93
2019-03-10T18:57:59.872Z,1.20
2019-03-10T19:02:01.786Z,1.30
2019-03-10T19:06:04.953Z,1.20
2019-03-10T19:10:13.030Z,1.20
2019-03-10T19:14:14.962Z,1.20
2019-03-10T19:18:16.856Z,1.30
2019-03-10T19:22:18.764Z,1.47
2019-03-10T19:26:21.131Z,1.30
2019-03-10T19:30:24.662Z,1.47
2019-03-10T19:34:26.581Z,1.37
2019-03-10T19:38:30.187Z,1.32
2019-03-10T19:42:32.159Z,1.30
2019-03-10T19:46:34.046Z,1.20
2019-03-10T19:50:35.955Z,1.52
2019-03-10T19:54:37.888Z,1.30
2019-03-10T19:58:42.816Z,0.93
2019-03-10T20:02:45.040Z,0.98
2019-03-10T20:06:47.935Z,1.10
2019-03-10T20:10:49.813Z,1.10
2019-03-10T20:14:51.715Z,0.80
2019-03-10T20:18:53.614Z,1.07
2019-03-10T20:22:55.637Z,1.10
2019-03-10T20:26:57.538Z,0.83
2019-03-10T20:30:59.446Z,0.60
2019-03-10T20:35:01.331Z,0.60
2019-03-10T20:39:05.059Z,0.50
2019-03-10T20:43:08.566Z,0.80
2019-03-10T20:47:10.465Z,0.40
2019-03-10T20:51:12.363Z,0.27
2019-03-10T20:55:15.403Z,0.30
2019-03-10T20:59:17.296Z,0.43
2019-03-10T21:03:19.202Z,0.30
2019-03-10T21:07:21.134Z,0.47
2019-03-10T21:11:23.041Z,0.70
2019-03-10T21:15:26.594Z,0.30
2019-03-10T21:19:28.718Z,0.60
2019-03-10T21:23:30.630Z,0.50
2019-03-10T21:27:32.537Z,0.47
2019-03-10T21:31:35.437Z,0.60
2019-03-10T21:35:37.353Z,0.83
2019-03-10T21:39:39.234Z,0.53
2019-03-10T21:43:41.145Z,0.77
2019-03-10T21:47:43.033Z,0.70
2019-03-10T21:51:44.937Z,0.60
2019-03-10T21:55:46.846Z,0.67
2019-03-10T21:59:48.732Z,0.60
2019-03-10T22:03:50.636Z,0.60
2019-03-10T22:07:52.541Z,0.80
2019-03-10T22:11:55.407Z,0.60
2019-03-10T22:15:57.313Z,0.67
2019-03-10T22:19:59.197Z,1.20
2019-03-10T22:24:03.181Z,1.07
2019-03-10T22:28:05.290Z,0.90
2019-03-10T22:32:07.190Z,0.90
2019-03-10T22:36:09.097Z,1.00
2019-03-10T22:40:14.356Z,0.80
2019-03-10T22:44:16.256Z,1.20
2019-03-10T22:48:18.159Z,1.17
2019-03-10T22:52:20.063Z,1.20
2019-03-10T22:56:21.971Z,1.10
2019-03-10T23:00:27.704Z,1.00
2019-03-10T23:04:32.848Z,1.00
2019-03-10T23:08:34.749Z,1.12
2019-03-10T23:12:36.650Z,0.80
2019-03-10T23:16:38.550Z,0.80
2019-03-10T23:20:41.525Z,0.80
2019-03-10T23:24:43.422Z,0.60
2019-03-10T23:28:45.327Z,0.70
2019-03-10T23:32:47.229Z,0.80
2019-03-10T23:36:49.133Z,0.70
2019-03-10T23:40:51.025Z,0.70
2019-03-10T23:44:54.514Z,0.83
2019-03-10T23:48:56.413Z,1.00
2019-03-10T23:52:58.316Z,1.00
2019-03-10T23:57:00.217Z,0.90
